createdAt,value
2023-05-14T00:00:17.254Z,29.10
2023-05-14T00:03:05.150Z,23.60
2023-05-14T00:05:33.144Z,25.90
2023-05-14T00:08:01.196Z,27.60
2023-05-14T00:10:29.108Z,28.70
2023-05-14T00:12:56.872Z,24.90
2023-05-14T00:15:24.979Z,29.50
2023-05-14T00:17:52.761Z,28.80
2023-05-14T00:20:20.800Z,29.60
2023-05-14T00:22:48.837Z,28.60
2023-05-14T00:25:16.600Z,29.60
2023-05-14T00:27:44.403Z,27.90
2023-05-14T00:30:12.493Z,29.70
2023-05-14T00:32:40.373Z,28.10
2023-05-14T00:35:08.570Z,36.80
2023-05-14T00:37:37.380Z,29.70
2023-05-14T00:40:06.921Z,40.60
2023-05-14T00:42:35.006Z,28.50
2023-05-14T00:45:02.970Z,29.70
2023-05-14T00:47:30.930Z,34.10
2023-05-14T00:49:58.753Z,23.50
2023-05-14T00:52:26.883Z,20.50
2023-05-14T00:54:54.895Z,20.90
2023-05-14T00:57:22.695Z,26.60
2023-05-14T00:59:50.840Z,29.00
2023-05-14T01:02:18.800Z,24.70
2023-05-14T01:04:46.686Z,17.10
2023-05-14T01:07:24.620Z,19.10
2023-05-14T01:09:59.704Z,19.00
2023-05-14T01:12:34.215Z,24.50
2023-05-14T01:15:04.719Z,24.90
2023-05-14T01:17:33.692Z,27.90
2023-05-14T01:20:02.065Z,24.50
2023-05-14T01:22:30.064Z,23.40
2023-05-14T01:24:57.949Z,22.40
2023-05-14T01:27:35.853Z,28.20
2023-05-14T01:30:23.512Z,29.30
2023-05-14T01:32:52.823Z,35.00
2023-05-14T01:35:22.730Z,33.30
2023-05-14T01:37:50.908Z,43.90
2023-05-14T01:40:18.913Z,37.80
2023-05-14T01:42:47.128Z,40.60
2023-05-14T01:45:15.169Z,32.40
2023-05-14T01:47:43.013Z,32.30
2023-05-14T01:50:11.137Z,35.40
2023-05-14T01:52:46.804Z,33.90
2023-05-14T01:55:22.076Z,33.40
2023-05-14T01:57:50.147Z,29.90
2023-05-14T02:00:18.279Z,30.90
2023-05-14T02:02:46.040Z,37.80
2023-05-14T02:05:14.005Z,42.00
2023-05-14T02:07:41.909Z,71.70
2023-05-14T02:10:10.149Z,40.90
2023-05-14T02:12:38.032Z,25.70
2023-05-14T02:15:06.182Z,29.80
2023-05-14T02:17:33.918Z,28.70
2023-05-14T02:20:01.653Z,22.70
2023-05-14T02:22:29.446Z,23.20
2023-05-14T02:25:00.687Z,23.10
2023-05-14T02:27:28.510Z,20.40
2023-05-14T02:30:00.790Z,23.50
2023-05-14T02:32:28.901Z,27.70
2023-05-14T02:34:56.707Z,28.40
2023-05-14T02:37:24.383Z,24.90
2023-05-14T02:39:54.651Z,25.00
2023-05-14T02:42:25.104Z,21.80
2023-05-14T02:44:53.087Z,21.70
2023-05-14T02:47:20.921Z,20.30
2023-05-14T02:49:48.857Z,30.80
2023-05-14T02:52:16.609Z,22.50
2023-05-14T02:54:44.521Z,21.10
2023-05-14T02:57:12.272Z,20.50
2023-05-14T02:59:39.998Z,23.00
2023-05-14T03:02:08.176Z,25.20
2023-05-14T03:04:36.849Z,25.00
2023-05-14T03:07:04.701Z,20.40
2023-05-14T03:09:32.432Z,20.00
2023-05-14T03:12:00.392Z,22.90
2023-05-14T03:14:37.598Z,21.50
2023-05-14T03:17:05.899Z,21.20
2023-05-14T03:19:33.800Z,24.80
2023-05-14T03:22:01.902Z,29.80
2023-05-14T03:24:29.682Z,28.80
2023-05-14T03:26:57.459Z,22.90
2023-05-14T03:29:25.263Z,24.40
2023-05-14T03:31:54.411Z,21.10
2023-05-14T03:34:22.437Z,23.00
2023-05-14T03:36:50.453Z,20.80
2023-05-14T03:39:19.926Z,21.70
2023-05-14T03:41:47.997Z,28.80
2023-05-14T03:44:15.902Z,24.40
2023-05-14T03:46:43.753Z,27.70
2023-05-14T03:49:11.609Z,29.00
2023-05-14T03:51:39.543Z,26.30
2023-05-14T03:54:07.579Z,27.60
2023-05-14T03:56:35.487Z,29.70
2023-05-14T03:59:03.289Z,25.00
2023-05-14T04:01:34.399Z,21.20
2023-05-14T04:04:02.248Z,25.60
2023-05-14T04:06:30.161Z,28.90
2023-05-14T04:08:57.991Z,21.00
2023-05-14T04:11:25.843Z,22.90
2023-05-14T04:13:53.598Z,19.20
2023-05-14T04:16:21.630Z,20.80
2023-05-14T04:18:49.463Z,20.10
2023-05-14T04:21:17.363Z,18.70
2023-05-14T04:23:45.107Z,19.20
2023-05-14T04:26:13.054Z,19.70
2023-05-14T04:28:40.976Z,19.50
2023-05-14T04:31:08.709Z,24.90
2023-05-14T04:33:36.467Z,21.60
2023-05-14T04:36:05.759Z,21.00
2023-05-14T04:38:35.917Z,26.20
2023-05-14T04:41:03.707Z,17.70
2023-05-14T04:43:31.519Z,20.30
2023-05-14T04:45:59.436Z,21.50
2023-05-14T04:48:27.471Z,20.50
2023-05-14T04:50:55.290Z,21.40
2023-05-14T04:53:23.179Z,18.70
2023-05-14T04:55:51.930Z,19.90
2023-05-14T04:58:19.791Z,16.80
2023-05-14T05:00:47.672Z,20.40
2023-05-14T05:03:15.745Z,23.60
2023-05-14T05:05:43.608Z,20.80
2023-05-14T05:08:11.565Z,19.80
2023-05-14T05:10:39.453Z,26.30
2023-05-14T05:13:07.273Z,23.20
2023-05-14T05:15:35.424Z,21.30
2023-05-14T05:18:03.659Z,21.90
2023-05-14T05:20:32.336Z,20.10
2023-05-14T05:23:00.289Z,20.00
2023-05-14T05:25:28.287Z,20.60
2023-05-14T05:27:56.074Z,22.70
2023-05-14T05:30:24.058Z,19.40
2023-05-14T05:32:51.977Z,19.10
2023-05-14T05:35:19.955Z,18.80
2023-05-14T05:37:47.827Z,22.40
2023-05-14T05:40:15.876Z,18.70
2023-05-14T05:42:43.758Z,20.20
2023-05-14T05:45:11.555Z,20.20
2023-05-14T05:47:39.408Z,23.10
2023-05-14T05:50:07.668Z,25.10
2023-05-14T05:52:35.576Z,19.40
2023-05-14T05:55:03.742Z,21.10
2023-05-14T05:57:31.657Z,19.70
2023-05-14T05:59:59.451Z,20.00
2023-05-14T06:02:27.244Z,26.70
2023-05-14T06:04:55.543Z,18.30
2023-05-14T06:07:23.435Z,21.00
2023-05-14T06:09:51.237Z,22.10
2023-05-14T06:12:19.169Z,16.80
2023-05-14T06:14:46.916Z,18.90
2023-05-14T06:17:14.783Z,20.20
2023-05-14T06:19:42.562Z,21.20
2023-05-14T06:22:10.403Z,22.50
2023-05-14T06:24:38.275Z,24.00
2023-05-14T06:27:06.339Z,18.30
2023-05-14T06:29:34.101Z,15.70
2023-05-14T06:32:02.287Z,20.00
2023-05-14T06:34:30.426Z,19.00
2023-05-14T06:36:58.234Z,22.00
2023-05-14T06:39:26.117Z,21.50
2023-05-14T06:41:53.879Z,17.50
2023-05-14T06:44:21.659Z,16.10
2023-05-14T06:46:49.398Z,16.60
2023-05-14T06:49:17.379Z,21.50
2023-05-14T06:51:45.805Z,18.80
2023-05-14T06:54:13.607Z,15.90
2023-05-14T06:56:41.340Z,14.00
2023-05-14T06:59:09.097Z,13.90
2023-05-14T07:01:37.433Z,17.00
2023-05-14T07:04:05.394Z,16.80
2023-05-14T07:06:33.252Z,17.30
2023-05-14T07:09:01.593Z,15.20
2023-05-14T07:11:29.470Z,17.40
2023-05-14T07:13:57.260Z,18.10
2023-05-14T07:16:25.153Z,12.90
2023-05-14T07:18:52.985Z,15.70
2023-05-14T07:21:20.777Z,14.50
2023-05-14T07:23:48.628Z,16.90
2023-05-14T07:26:16.352Z,17.40
2023-05-14T07:28:44.044Z,13.70
2023-05-14T07:31:11.920Z,14.80
2023-05-14T07:33:39.765Z,13.20
2023-05-14T07:36:11.291Z,15.00
2023-05-14T07:38:39.583Z,10.90
2023-05-14T07:41:07.949Z,14.20
2023-05-14T07:43:35.617Z,10.90
2023-05-14T07:46:03.277Z,15.50
2023-05-14T07:48:31.028Z,15.20
2023-05-14T07:50:58.979Z,14.70
2023-05-14T07:53:26.911Z,15.10
2023-05-14T07:55:54.851Z,8.50
2023-05-14T07:58:23.591Z,11.90
2023-05-14T08:00:51.383Z,10.30
2023-05-14T08:03:19.284Z,12.70
2023-05-14T08:05:47.131Z,11.20
2023-05-14T08:08:14.863Z,8.80
2023-05-14T08:10:42.683Z,10.20
2023-05-14T08:13:10.971Z,11.00
2023-05-14T08:15:38.725Z,9.20
2023-05-14T08:18:06.430Z,11.00
2023-05-14T08:20:34.254Z,15.10
2023-05-14T08:23:01.997Z,10.90
2023-05-14T08:25:29.690Z,9.20
2023-05-14T08:27:59.742Z,15.20
2023-05-14T08:30:28.010Z,9.20
2023-05-14T08:32:55.939Z,7.60
2023-05-14T08:35:23.787Z,7.60
2023-05-14T08:37:52.409Z,8.00
2023-05-14T08:40:20.299Z,6.00
2023-05-14T08:42:48.673Z,9.70
2023-05-14T08:45:20.768Z,14.20
2023-05-14T08:47:53.063Z,10.60
2023-05-14T08:50:23.560Z,9.80
2023-05-14T08:52:52.052Z,7.70
2023-05-14T08:55:19.997Z,5.60
2023-05-14T08:57:48.141Z,10.10
2023-05-14T09:00:16.116Z,8.00
2023-05-14T09:02:44.772Z,10.00
2023-05-14T09:05:13.261Z,9.90
2023-05-14T09:07:41.338Z,5.70
2023-05-14T09:10:09.487Z,6.30
2023-05-14T09:12:37.303Z,12.70
2023-05-14T09:15:05.392Z,7.20
2023-05-14T09:17:33.537Z,6.10
2023-05-14T09:20:01.471Z,5.50
2023-05-14T09:22:30.183Z,8.80
2023-05-14T09:25:05.989Z,7.40
2023-05-14T09:27:34.296Z,6.20
2023-05-14T09:30:09.574Z,5.90
2023-05-14T09:32:38.251Z,7.30
2023-05-14T09:35:17.976Z,7.60
2023-05-14T09:37:47.029Z,9.60
2023-05-14T09:40:15.246Z,6.70
2023-05-14T09:42:43.071Z,8.30
2023-05-14T09:45:11.586Z,22.20
2023-05-14T09:47:40.069Z,12.30
2023-05-14T09:50:08.491Z,9.50
2023-05-14T09:52:37.348Z,9.20
2023-05-14T09:55:05.942Z,8.20
2023-05-14T09:57:34.672Z,5.80
2023-05-14T10:00:02.926Z,7.80
2023-05-14T10:02:37.658Z,13.30
2023-05-14T10:05:07.051Z,6.50
2023-05-14T10:07:46.684Z,9.40
2023-05-14T10:10:16.798Z,16.50
2023-05-14T10:12:46.498Z,10.00
2023-05-14T10:15:17.981Z,8.00
2023-05-14T10:17:48.730Z,6.00
2023-05-14T10:20:19.472Z,8.60
2023-05-14T10:22:47.424Z,13.90
2023-05-14T10:25:15.713Z,9.60
2023-05-14T10:27:43.916Z,12.30
2023-05-14T10:30:12.823Z,5.70
2023-05-14T10:32:42.048Z,7.70
2023-05-14T10:35:17.430Z,6.90
2023-05-14T10:37:46.564Z,11.50
2023-05-14T10:40:14.651Z,26.00
2023-05-14T10:42:45.468Z,15.80
2023-05-14T10:45:14.766Z,5.80
2023-05-14T10:47:43.560Z,18.20
2023-05-14T10:50:12.768Z,17.50
2023-05-14T10:52:43.940Z,12.10
2023-05-14T10:55:16.076Z,8.00
2023-05-14T10:57:44.671Z,14.10
2023-05-14T11:00:13.291Z,7.90
2023-05-14T11:02:42.227Z,6.60
2023-05-14T11:05:13.959Z,5.30
2023-05-14T11:07:42.699Z,11.90
2023-05-14T11:10:11.385Z,5.00
2023-05-14T11:12:40.927Z,9.00
2023-05-14T11:15:10.081Z,8.20
2023-05-14T11:17:38.799Z,10.80
2023-05-14T11:20:08.095Z,3.50
2023-05-14T11:22:36.258Z,9.60
2023-05-14T11:25:04.256Z,6.80
2023-05-14T11:27:33.604Z,5.60
2023-05-14T11:30:01.786Z,9.60
2023-05-14T11:32:31.857Z,8.20
2023-05-14T11:34:59.706Z,7.80
2023-05-14T11:37:27.468Z,4.40
2023-05-14T11:39:55.846Z,8.50
2023-05-14T11:42:23.894Z,6.80
2023-05-14T11:45:03.729Z,8.80
2023-05-14T11:47:31.894Z,9.20
2023-05-14T11:50:00.855Z,6.00
2023-05-14T11:52:28.693Z,6.30
2023-05-14T11:54:56.471Z,6.70
2023-05-14T11:57:24.282Z,5.50
2023-05-14T11:59:57.934Z,4.20
2023-05-14T12:02:27.877Z,5.80
2023-05-14T12:04:56.265Z,5.10
2023-05-14T12:07:23.979Z,3.10
2023-05-14T12:09:51.792Z,6.80
2023-05-14T12:12:20.919Z,4.10
2023-05-14T12:14:49.687Z,3.90
2023-05-14T12:17:18.620Z,4.60
2023-05-14T12:19:50.719Z,8.00
2023-05-14T12:22:19.693Z,7.90
2023-05-14T12:24:54.341Z,7.00
2023-05-14T12:27:23.527Z,2.60
2023-05-14T12:32:26.939Z,6.40
2023-05-14T12:34:54.806Z,9.40
2023-05-14T12:37:22.727Z,7.30
2023-05-14T12:39:50.395Z,2.90
2023-05-14T12:42:18.181Z,5.70
2023-05-14T12:44:46.526Z,5.90
2023-05-14T12:47:15.145Z,9.00
2023-05-14T12:49:43.115Z,6.30
2023-05-14T12:54:43.454Z,11.00
2023-05-14T12:57:11.405Z,4.50
2023-05-14T12:59:39.180Z,8.50
2023-05-14T13:02:07.149Z,9.00
2023-05-14T13:04:35.177Z,7.60
2023-05-14T13:07:03.423Z,5.30
2023-05-14T13:09:31.217Z,7.20
2023-05-14T13:11:59.076Z,7.90
2023-05-14T13:14:26.847Z,5.30
2023-05-14T13:16:54.732Z,26.60
2023-05-14T13:19:22.846Z,7.40
2023-05-14T13:21:50.548Z,5.40
2023-05-14T13:24:18.359Z,6.30
2023-05-14T13:26:46.182Z,5.10
2023-05-14T13:29:14.190Z,4.40
2023-05-14T13:31:42.116Z,8.00
2023-05-14T13:34:10.390Z,10.50
2023-05-14T13:36:39.766Z,5.70
2023-05-14T13:39:07.703Z,8.20
2023-05-14T13:41:35.960Z,5.40
2023-05-14T13:44:04.406Z,3.70
2023-05-14T13:46:32.120Z,7.20
2023-05-14T13:48:59.937Z,7.40
2023-05-14T13:51:27.642Z,7.50
2023-05-14T13:53:55.666Z,4.30
2023-05-14T13:56:23.953Z,4.90
2023-05-14T13:58:51.842Z,5.20
2023-05-14T14:01:19.680Z,8.30
2023-05-14T14:03:47.664Z,3.60
2023-05-14T14:06:15.355Z,6.20
2023-05-14T14:08:43.265Z,4.50
2023-05-14T14:11:11.093Z,3.50
2023-05-14T14:13:39.908Z,4.90
2023-05-14T14:16:07.759Z,5.10
2023-05-14T14:18:35.656Z,4.80
2023-05-14T14:21:03.453Z,4.20
2023-05-14T14:23:31.292Z,3.10
2023-05-14T14:25:59.022Z,10.90
2023-05-14T14:28:26.754Z,5.60
2023-05-14T14:30:54.495Z,4.10
2023-05-14T14:33:22.295Z,6.00
2023-05-14T14:35:50.160Z,6.60
2023-05-14T14:38:18.055Z,5.80
2023-05-14T14:40:46.403Z,5.90
2023-05-14T14:43:14.327Z,6.10
2023-05-14T14:45:42.952Z,5.70
2023-05-14T14:48:24.708Z,6.70
2023-05-14T14:50:52.949Z,9.20
2023-05-14T14:53:21.436Z,5.60
2023-05-14T14:55:49.951Z,5.20
2023-05-14T14:58:18.541Z,4.70
2023-05-14T15:00:46.540Z,4.60
2023-05-14T15:03:15.153Z,3.00
2023-05-14T15:05:43.177Z,5.30
2023-05-14T15:08:10.854Z,7.00
2023-05-14T15:10:38.710Z,3.80
2023-05-14T15:13:06.667Z,5.70
2023-05-14T15:15:35.041Z,4.40
2023-05-14T15:18:03.527Z,8.00
2023-05-14T15:20:31.342Z,6.80
2023-05-14T15:22:59.174Z,6.60
2023-05-14T15:25:27.087Z,5.10
2023-05-14T15:27:55.210Z,3.00
2023-05-14T15:30:23.035Z,3.80
2023-05-14T15:32:50.975Z,4.20
2023-05-14T15:35:18.716Z,7.40
2023-05-14T15:37:46.429Z,4.30
2023-05-14T15:40:14.210Z,3.50
2023-05-14T15:42:43.053Z,2.10
2023-05-14T15:45:12.445Z,3.10
2023-05-14T15:47:41.096Z,1.70
2023-05-14T15:50:09.272Z,7.00
2023-05-14T15:52:37.180Z,3.40
2023-05-14T15:55:08.163Z,3.60
2023-05-14T15:57:35.933Z,2.80
2023-05-14T16:00:11.124Z,3.20
2023-05-14T16:02:39.355Z,2.10
2023-05-14T16:05:08.313Z,4.20
2023-05-14T16:07:36.374Z,3.10
2023-05-14T16:10:04.979Z,3.10
2023-05-14T16:12:32.961Z,3.60
2023-05-14T16:15:01.074Z,2.90
2023-05-14T16:17:30.477Z,2.50
2023-05-14T16:19:59.605Z,3.80
2023-05-14T16:22:29.122Z,5.50
2023-05-14T16:24:56.811Z,1.30
2023-05-14T16:27:24.793Z,8.20
2023-05-14T16:29:53.057Z,1.30
2023-05-14T16:32:21.719Z,9.50
2023-05-14T16:34:52.288Z,1.40
2023-05-14T16:37:20.515Z,1.60
2023-05-14T16:39:48.834Z,8.70
2023-05-14T16:42:16.628Z,2.00
2023-05-14T16:44:44.371Z,2.50
2023-05-14T16:47:12.133Z,5.60
2023-05-14T16:49:40.080Z,2.60
2023-05-14T16:52:08.448Z,7.20
2023-05-14T16:54:36.462Z,4.30
2023-05-14T16:57:05.096Z,2.10
2023-05-14T16:59:33.181Z,3.00
2023-05-14T17:02:01.235Z,1.50
2023-05-14T17:04:29.228Z,6.30
2023-05-14T17:06:57.533Z,2.30
2023-05-14T17:09:25.394Z,1.70
2023-05-14T17:11:53.286Z,3.90
2023-05-14T17:14:21.225Z,6.00
2023-05-14T17:16:49.154Z,5.20
2023-05-14T17:19:16.918Z,7.40
2023-05-14T17:21:44.931Z,5.00
2023-05-14T17:24:12.695Z,4.70
2023-05-14T17:26:40.518Z,5.30
2023-05-14T17:29:08.245Z,8.40
2023-05-14T17:31:36.143Z,9.70
2023-05-14T17:34:03.903Z,11.20
2023-05-14T17:36:32.390Z,7.30
2023-05-14T17:39:00.209Z,6.80
2023-05-14T17:41:28.004Z,4.50
2023-05-14T17:43:55.945Z,3.70
2023-05-14T17:46:23.930Z,3.30
2023-05-14T17:48:51.676Z,6.60
2023-05-14T17:51:19.486Z,4.50
2023-05-14T17:53:47.309Z,3.00
2023-05-14T17:56:17.250Z,4.60
2023-05-14T17:58:45.764Z,4.50
2023-05-14T18:01:13.512Z,5.60
2023-05-14T18:03:41.467Z,2.60
2023-05-14T18:06:09.423Z,2.30
2023-05-14T18:08:37.315Z,2.80
2023-05-14T18:11:05.077Z,3.80
2023-05-14T18:13:32.755Z,4.60
2023-05-14T18:16:01.206Z,5.70
2023-05-14T18:18:29.257Z,4.40
2023-05-14T18:20:57.087Z,6.00
2023-05-14T18:23:24.856Z,8.20
2023-05-14T18:25:52.770Z,9.50
2023-05-14T18:28:21.561Z,5.70
2023-05-14T18:30:49.845Z,11.70
2023-05-14T18:33:17.829Z,7.90
2023-05-14T18:35:45.628Z,10.50
2023-05-14T18:38:13.922Z,13.90
2023-05-14T18:40:41.760Z,7.20
2023-05-14T18:43:10.926Z,12.80
2023-05-14T18:45:41.880Z,14.40
2023-05-14T18:48:10.465Z,15.30
2023-05-14T18:50:39.475Z,11.70
2023-05-14T18:53:07.823Z,10.10
2023-05-14T18:55:37.151Z,9.10
2023-05-14T18:58:05.052Z,7.90
2023-05-14T19:00:33.058Z,5.80
2023-05-14T19:03:00.986Z,5.60
2023-05-14T19:05:28.814Z,7.50
2023-05-14T19:07:56.929Z,3.50
2023-05-14T19:10:24.769Z,5.80
2023-05-14T19:12:52.762Z,5.90
2023-05-14T19:15:20.570Z,6.40
2023-05-14T19:17:49.170Z,14.70
2023-05-14T19:20:17.135Z,16.70
2023-05-14T19:22:44.896Z,19.50
2023-05-14T19:25:12.778Z,18.00
2023-05-14T19:27:40.707Z,24.10
2023-05-14T19:30:08.749Z,14.80
2023-05-14T19:32:37.945Z,23.10
2023-05-14T19:35:06.197Z,26.60
2023-05-14T19:37:34.063Z,21.70
2023-05-14T19:40:01.955Z,28.10
2023-05-14T19:42:30.708Z,35.60
2023-05-14T19:44:58.528Z,25.00
2023-05-14T19:47:27.560Z,21.10
2023-05-14T19:49:55.338Z,28.90
2023-05-14T19:52:24.397Z,18.30
2023-05-14T19:54:52.319Z,16.50
2023-05-14T19:57:20.411Z,16.90
2023-05-14T19:59:48.240Z,17.80
2023-05-14T20:02:18.431Z,17.30
2023-05-14T20:04:47.487Z,13.30
2023-05-14T20:07:18.489Z,11.90
2023-05-14T20:09:46.768Z,14.40
2023-05-14T20:12:14.890Z,21.90
2023-05-14T20:14:45.855Z,27.50
2023-05-14T20:17:13.852Z,22.90
2023-05-14T20:19:41.909Z,22.90
2023-05-14T20:22:09.759Z,16.30
2023-05-14T20:24:37.592Z,12.60
2023-05-14T20:27:05.473Z,14.50
2023-05-14T20:29:33.514Z,9.70
2023-05-14T20:32:01.688Z,11.00
2023-05-14T20:34:30.341Z,9.60
2023-05-14T20:36:58.282Z,9.00
2023-05-14T20:39:26.371Z,9.90
2023-05-14T20:41:54.108Z,12.20
2023-05-14T20:44:25.219Z,10.00
2023-05-14T20:46:53.062Z,24.20
2023-05-14T20:49:20.863Z,16.90
2023-05-14T20:51:48.800Z,18.30
2023-05-14T20:54:16.627Z,20.30
2023-05-14T20:56:44.632Z,17.50
2023-05-14T20:59:12.417Z,17.70
2023-05-14T21:01:40.257Z,22.20
2023-05-14T21:04:08.355Z,18.10
2023-05-14T21:06:36.310Z,19.70
2023-05-14T21:09:04.134Z,19.70
2023-05-14T21:11:31.871Z,27.60
2023-05-14T21:13:59.613Z,29.70
2023-05-14T21:16:27.574Z,15.30
2023-05-14T21:18:55.610Z,14.20
2023-05-14T21:21:23.414Z,12.40
2023-05-14T21:23:53.656Z,15.10
2023-05-14T21:26:24.409Z,13.40
2023-05-14T21:28:52.353Z,10.30
2023-05-14T21:31:20.114Z,16.10
2023-05-14T21:33:48.171Z,15.60
2023-05-14T21:36:16.107Z,16.10
2023-05-14T21:38:43.958Z,18.10
2023-05-14T21:41:11.899Z,11.10
2023-05-14T21:43:40.856Z,7.80
2023-05-14T21:46:08.815Z,10.60
2023-05-14T21:48:36.862Z,7.40
2023-05-14T21:51:05.087Z,7.00
2023-05-14T21:53:32.902Z,8.00
2023-05-14T21:56:00.792Z,4.50
2023-05-14T21:58:28.616Z,7.70
2023-05-14T22:00:56.399Z,8.30
2023-05-14T22:03:24.288Z,4.70
2023-05-14T22:05:53.292Z,9.70
2023-05-14T22:08:21.075Z,4.50
2023-05-14T22:10:48.801Z,7.40
2023-05-14T22:13:16.663Z,7.30
2023-05-14T22:15:44.614Z,6.50
2023-05-14T22:18:13.084Z,6.40
2023-05-14T22:20:41.523Z,5.50
2023-05-14T22:23:09.358Z,5.00
2023-05-14T22:25:37.139Z,7.50
2023-05-14T22:28:12.571Z,6.50
2023-05-14T22:30:40.409Z,6.00
2023-05-14T22:33:08.304Z,5.60
2023-05-14T22:35:36.207Z,5.90
2023-05-14T22:38:03.920Z,5.80
2023-05-14T22:40:31.888Z,6.00
2023-05-14T22:42:59.815Z,5.60
2023-05-14T22:45:27.500Z,6.20
2023-05-14T22:47:55.356Z,6.40
2023-05-14T22:50:23.205Z,5.30
2023-05-14T22:52:51.048Z,8.20
2023-05-14T22:55:18.857Z,6.30
2023-05-14T22:57:46.649Z,5.10
2023-05-14T23:00:14.648Z,5.80
2023-05-14T23:02:42.590Z,8.10
2023-05-14T23:05:10.399Z,5.40
2023-05-14T23:07:38.265Z,8.00
2023-05-14T23:10:06.474Z,6.90
2023-05-14T23:12:34.264Z,6.30
2023-05-14T23:15:02.089Z,7.00
2023-05-14T23:17:29.998Z,7.80
2023-05-14T23:19:57.936Z,6.80
2023-05-14T23:22:28.181Z,6.40
2023-05-14T23:24:55.916Z,7.10
2023-05-14T23:27:23.836Z,7.10
2023-05-14T23:29:51.596Z,7.50
2023-05-14T23:32:19.539Z,5.30
2023-05-14T23:34:47.324Z,6.40
2023-05-14T23:37:15.152Z,5.70
2023-05-14T23:39:46.109Z,6.10
2023-05-14T23:42:13.988Z,7.00
2023-05-14T23:44:41.869Z,12.00
2023-05-14T23:47:09.662Z,8.80
2023-05-14T23:49:40.782Z,8.20
2023-05-14T23:52:08.713Z,5.80
2023-05-14T23:54:36.571Z,8.90
2023-05-14T23:57:04.611Z,15.50
2023-05-14T23:59:44.898Z,27.60
